sensor_id;sensor_type;location;lat;lon;timestamp;P1;durP1;ratioP1;P2;durP2;ratioP2
18455;SDS011;9357;49.900;8.208;2023-07-31T00:00:45;3.07;;;1.70;;
18455;SDS011;9357;49.900;8.208;2023-07-31T00:02:17;4.70;;;1.70;;
18455;SDS011;9357;49.900;8.208;2023-07-31T00:03:49;2.87;;;1.80;;
18455;SDS011;9357;49.900;8.208;2023-07-31T00:05:22;2.17;;;1.80;;
18455;SDS011;9357;49.900;8.208;2023-07-31T00:06:56;3.13;;;1.70;;
18455;SDS011;9357;49.900;8.208;2023-07-31T00:08:28;4.07;;;1.77;;
18455;SDS011;9357;49.900;8.208;2023-07-31T00:10:00;4.87;;;2.10;;
18455;SDS011;9357;49.900;8.208;2023-07-31T00:11:32;4.33;;;1.93;;
18455;SDS011;9357;49.900;8.208;2023-07-31T00:13:05;3.57;;;1.63;;
18455;SDS011;9357;49.900;8.208;2023-07-31T00:14:37;5.00;;;2.07;;
18455;SDS011;9357;49.900;8.208;2023-07-31T00:16:09;2.90;;;2.07;;
18455;SDS011;9357;49.900;8.208;2023-07-31T00:17:41;3.67;;;1.93;;
18455;SDS011;9357;49.900;8.208;2023-07-31T00:19:14;2.10;;;1.73;;
18455;SDS011;9357;49.900;8.208;2023-07-31T00:20:46;3.40;;;1.93;;
18455;SDS011;9357;49.900;8.208;2023-07-31T00:22:20;3.73;;;1.83;;
18455;SDS011;9357;49.900;8.208;2023-07-31T00:23:52;6.53;;;2.43;;
18455;SDS011;9357;49.900;8.208;2023-07-31T00:25:24;3.93;;;2.00;;
18455;SDS011;9357;49.900;8.208;2023-07-31T00:26:57;4.30;;;1.87;;
18455;SDS011;9357;49.900;8.208;2023-07-31T00:28:29;3.27;;;1.90;;
18455;SDS011;9357;49.900;8.208;2023-07-31T00:30:01;3.93;;;1.90;;
18455;SDS011;9357;49.900;8.208;2023-07-31T00:31:34;3.53;;;1.70;;
18455;SDS011;9357;49.900;8.208;2023-07-31T00:33:07;3.23;;;1.80;;
18455;SDS011;9357;49.900;8.208;2023-07-31T00:34:38;3.43;;;1.80;;
18455;SDS011;9357;49.900;8.208;2023-07-31T00:36:11;3.93;;;2.00;;
18455;SDS011;9357;49.900;8.208;2023-07-31T00:37:44;5.93;;;2.27;;
18455;SDS011;9357;49.900;8.208;2023-07-31T00:39:17;3.53;;;2.00;;
18455;SDS011;9357;49.900;8.208;2023-07-31T00:40:49;2.67;;;1.87;;
18455;SDS011;9357;49.900;8.208;2023-07-31T00:42:21;4.53;;;2.23;;
18455;SDS011;9357;49.900;8.208;2023-07-31T00:43:54;3.53;;;2.00;;
18455;SDS011;9357;49.900;8.208;2023-07-31T00:45:26;2.50;;;1.93;;
18455;SDS011;9357;49.900;8.208;2023-07-31T00:46:59;4.60;;;2.00;;
18455;SDS011;9357;49.900;8.208;2023-07-31T00:48:33;3.07;;;1.80;;
18455;SDS011;9357;49.900;8.208;2023-07-31T00:50:05;4.00;;;1.90;;
18455;SDS011;9357;49.900;8.208;2023-07-31T00:51:39;3.83;;;2.10;;
18455;SDS011;9357;49.900;8.208;2023-07-31T00:53:12;2.53;;;2.10;;
18455;SDS011;9357;49.900;8.208;2023-07-31T00:54:45;3.87;;;2.03;;
18455;SDS011;9357;49.900;8.208;2023-07-31T00:56:17;2.40;;;1.90;;
18455;SDS011;9357;49.900;8.208;2023-07-31T00:57:50;4.60;;;2.20;;
18455;SDS011;9357;49.900;8.208;2023-07-31T00:59:23;3.77;;;2.33;;
18455;SDS011;9357;49.900;8.208;2023-07-31T01:00:56;5.47;;;2.10;;
18455;SDS011;9357;49.900;8.208;2023-07-31T01:02:28;4.80;;;2.07;;
18455;SDS011;9357;49.900;8.208;2023-07-31T01:04:01;5.27;;;2.20;;
18455;SDS011;9357;49.900;8.208;2023-07-31T01:05:36;2.80;;;1.97;;
18455;SDS011;9357;49.900;8.208;2023-07-31T01:07:21;4.57;;;2.40;;
18455;SDS011;9357;49.900;8.208;2023-07-31T01:09:03;4.10;;;2.30;;
18455;SDS011;9357;49.900;8.208;2023-07-31T01:10:41;3.90;;;2.10;;
18455;SDS011;9357;49.900;8.208;2023-07-31T01:12:21;2.87;;;2.07;;
18455;SDS011;9357;49.900;8.208;2023-07-31T01:13:56;4.53;;;2.10;;
18455;SDS011;9357;49.900;8.208;2023-07-31T01:15:28;3.27;;;2.23;;
18455;SDS011;9357;49.900;8.208;2023-07-31T01:17:01;4.60;;;2.20;;
18455;SDS011;9357;49.900;8.208;2023-07-31T01:18:33;3.97;;;2.27;;
18455;SDS011;9357;49.900;8.208;2023-07-31T01:20:08;3.23;;;2.30;;
18455;SDS011;9357;49.900;8.208;2023-07-31T01:21:51;3.57;;;2.00;;
18455;SDS011;9357;49.900;8.208;2023-07-31T01:23:50;5.13;;;2.10;;
18455;SDS011;9357;49.900;8.208;2023-07-31T01:25:50;4.50;;;2.50;;
18455;SDS011;9357;49.900;8.208;2023-07-31T01:27:34;5.60;;;2.40;;
18455;SDS011;9357;49.900;8.208;2023-07-31T01:29:10;3.67;;;2.10;;
18455;SDS011;9357;49.900;8.208;2023-07-31T01:30:48;3.37;;;2.20;;
18455;SDS011;9357;49.900;8.208;2023-07-31T01:32:21;5.90;;;2.20;;
18455;SDS011;9357;49.900;8.208;2023-07-31T01:33:56;4.67;;;2.27;;
18455;SDS011;9357;49.900;8.208;2023-07-31T01:35:32;4.00;;;2.33;;
18455;SDS011;9357;49.900;8.208;2023-07-31T01:37:04;2.90;;;1.90;;
18455;SDS011;9357;49.900;8.208;2023-07-31T01:38:37;4.97;;;2.13;;
18455;SDS011;9357;49.900;8.208;2023-07-31T01:40:09;8.53;;;2.27;;
18455;SDS011;9357;49.900;8.208;2023-07-31T01:41:43;4.60;;;2.40;;
18455;SDS011;9357;49.900;8.208;2023-07-31T01:43:15;4.53;;;2.30;;
18455;SDS011;9357;49.900;8.208;2023-07-31T01:44:48;3.80;;;2.30;;
18455;SDS011;9357;49.900;8.208;2023-07-31T01:46:20;5.00;;;2.40;;
18455;SDS011;9357;49.900;8.208;2023-07-31T01:47:52;5.93;;;2.30;;
18455;SDS011;9357;49.900;8.208;2023-07-31T01:49:24;4.47;;;2.20;;
18455;SDS011;9357;49.900;8.208;2023-07-31T01:51:00;3.53;;;2.20;;
18455;SDS011;9357;49.900;8.208;2023-07-31T01:52:31;3.07;;;2.13;;
18455;SDS011;9357;49.900;8.208;2023-07-31T01:54:04;6.20;;;2.33;;
18455;SDS011;9357;49.900;8.208;2023-07-31T01:55:36;5.37;;;2.23;;
18455;SDS011;9357;49.900;8.208;2023-07-31T01:57:10;4.83;;;2.50;;
18455;SDS011;9357;49.900;8.208;2023-07-31T01:58:42;3.83;;;2.40;;
18455;SDS011;9357;49.900;8.208;2023-07-31T02:00:15;3.53;;;2.30;;
18455;SDS011;9357;49.900;8.208;2023-07-31T02:01:46;5.33;;;2.40;;
18455;SDS011;9357;49.900;8.208;2023-07-31T02:03:20;3.03;;;2.20;;
18455;SDS011;9357;49.900;8.208;2023-07-31T02:04:52;4.20;;;2.40;;
18455;SDS011;9357;49.900;8.208;2023-07-31T02:06:25;2.73;;;2.20;;
18455;SDS011;9357;49.900;8.208;2023-07-31T02:07:57;5.67;;;2.20;;
18455;SDS011;9357;49.900;8.208;2023-07-31T02:09:29;5.03;;;2.30;;
18455;SDS011;9357;49.900;8.208;2023-07-31T02:11:02;4.63;;;2.33;;
18455;SDS011;9357;49.900;8.208;2023-07-31T02:12:36;5.30;;;2.50;;
18455;SDS011;9357;49.900;8.208;2023-07-31T02:14:09;4.47;;;2.30;;
18455;SDS011;9357;49.900;8.208;2023-07-31T02:15:41;5.03;;;2.43;;
18455;SDS011;9357;49.900;8.208;2023-07-31T02:17:13;3.50;;;2.30;;
18455;SDS011;9357;49.900;8.208;2023-07-31T02:18:45;4.17;;;2.00;;
18455;SDS011;9357;49.900;8.208;2023-07-31T02:20:18;4.33;;;2.50;;
18455;SDS011;9357;49.900;8.208;2023-07-31T02:21:50;4.03;;;2.40;;
18455;SDS011;9357;49.900;8.208;2023-07-31T02:23:22;5.90;;;2.30;;
18455;SDS011;9357;49.900;8.208;2023-07-31T02:24:54;7.00;;;2.40;;
18455;SDS011;9357;49.900;8.208;2023-07-31T02:26:27;4.23;;;2.63;;
18455;SDS011;9357;49.900;8.208;2023-07-31T02:28:01;5.27;;;2.53;;
18455;SDS011;9357;49.900;8.208;2023-07-31T02:29:34;6.20;;;2.47;;
18455;SDS011;9357;49.900;8.208;2023-07-31T02:31:05;4.67;;;2.50;;
18455;SDS011;9357;49.900;8.208;2023-07-31T02:32:38;4.80;;;2.50;;
18455;SDS011;9357;49.900;8.208;2023-07-31T02:34:10;5.07;;;2.63;;
18455;SDS011;9357;49.900;8.208;2023-07-31T02:35:43;3.77;;;2.40;;
18455;SDS011;9357;49.900;8.208;2023-07-31T02:37:14;6.30;;;2.60;;
18455;SDS011;9357;49.900;8.208;2023-07-31T02:38:47;4.13;;;2.40;;
18455;SDS011;9357;49.900;8.208;2023-07-31T02:40:19;3.47;;;2.23;;
18455;SDS011;9357;49.900;8.208;2023-07-31T02:41:51;6.30;;;2.70;;
18455;SDS011;9357;49.900;8.208;2023-07-31T02:43:25;4.73;;;2.53;;
18455;SDS011;9357;49.900;8.208;2023-07-31T02:44:57;4.40;;;2.30;;
18455;SDS011;9357;49.900;8.208;2023-07-31T02:46:29;4.53;;;2.60;;
18455;SDS011;9357;49.900;8.208;2023-07-31T02:48:02;5.50;;;2.47;;
18455;SDS011;9357;49.900;8.208;2023-07-31T02:49:34;5.67;;;2.40;;
18455;SDS011;9357;49.900;8.208;2023-07-31T02:51:07;3.93;;;2.10;;
18455;SDS011;9357;49.900;8.208;2023-07-31T02:52:40;3.93;;;2.27;;
18455;SDS011;9357;49.900;8.208;2023-07-31T02:54:12;3.57;;;2.27;;
18455;SDS011;9357;49.900;8.208;2023-07-31T02:55:44;5.70;;;2.37;;
18455;SDS011;9357;49.900;8.208;2023-07-31T02:57:16;4.97;;;2.40;;
18455;SDS011;9357;49.900;8.208;2023-07-31T02:58:50;5.63;;;2.20;;
18455;SDS011;9357;49.900;8.208;2023-07-31T03:00:22;4.17;;;2.57;;
18455;SDS011;9357;49.900;8.208;2023-07-31T03:01:55;3.03;;;2.37;;
18455;SDS011;9357;49.900;8.208;2023-07-31T03:03:26;4.47;;;2.67;;
18455;SDS011;9357;49.900;8.208;2023-07-31T03:04:59;4.87;;;2.83;;
18455;SDS011;9357;49.900;8.208;2023-07-31T03:06:31;4.70;;;2.50;;
18455;SDS011;9357;49.900;8.208;2023-07-31T03:08:04;5.90;;;2.70;;
18455;SDS011;9357;49.900;8.208;2023-07-31T03:09:35;5.60;;;2.97;;
18455;SDS011;9357;49.900;8.208;2023-07-31T03:11:08;5.63;;;2.67;;
18455;SDS011;9357;49.900;8.208;2023-07-31T03:12:41;5.37;;;2.47;;
18455;SDS011;9357;49.900;8.208;2023-07-31T03:14:14;4.87;;;2.50;;
18455;SDS011;9357;49.900;8.208;2023-07-31T03:15:48;6.23;;;2.50;;
18455;SDS011;9357;49.900;8.208;2023-07-31T03:17:20;4.43;;;2.70;;
18455;SDS011;9357;49.900;8.208;2023-07-31T03:18:53;5.47;;;2.37;;
18455;SDS011;9357;49.900;8.208;2023-07-31T03:20:25;3.87;;;2.60;;
18455;SDS011;9357;49.900;8.208;2023-07-31T03:21:58;5.07;;;2.57;;
18455;SDS011;9357;49.900;8.208;2023-07-31T03:23:30;5.33;;;2.80;;
18455;SDS011;9357;49.900;8.208;2023-07-31T03:25:03;6.73;;;2.83;;
18455;SDS011;9357;49.900;8.208;2023-07-31T03:26:35;5.63;;;2.97;;
18455;SDS011;9357;49.900;8.208;2023-07-31T03:28:08;7.87;;;2.90;;
18455;SDS011;9357;49.900;8.208;2023-07-31T03:29:42;3.50;;;2.47;;
18455;SDS011;9357;49.900;8.208;2023-07-31T03:31:14;5.07;;;2.70;;
18455;SDS011;9357;49.900;8.208;2023-07-31T03:32:46;4.73;;;2.77;;
18455;SDS011;9357;49.900;8.208;2023-07-31T03:34:19;5.13;;;2.80;;
18455;SDS011;9357;49.900;8.208;2023-07-31T03:35:51;5.30;;;2.50;;
18455;SDS011;9357;49.900;8.208;2023-07-31T03:37:23;4.37;;;2.37;;
18455;SDS011;9357;49.900;8.208;2023-07-31T03:38:56;6.57;;;2.60;;
18455;SDS011;9357;49.900;8.208;2023-07-31T03:40:28;4.23;;;2.50;;
18455;SDS011;9357;49.900;8.208;2023-07-31T03:42:01;4.63;;;2.50;;
18455;SDS011;9357;49.900;8.208;2023-07-31T03:43:32;7.50;;;2.80;;
18455;SDS011;9357;49.900;8.208;2023-07-31T03:45:08;6.33;;;2.80;;
18455;SDS011;9357;49.900;8.208;2023-07-31T03:46:40;4.10;;;2.53;;
18455;SDS011;9357;49.900;8.208;2023-07-31T03:48:13;5.83;;;2.73;;
18455;SDS011;9357;49.900;8.208;2023-07-31T03:49:46;6.37;;;3.03;;
18455;SDS011;9357;49.900;8.208;2023-07-31T03:51:19;4.60;;;2.50;;
18455;SDS011;9357;49.900;8.208;2023-07-31T03:52:51;3.90;;;2.57;;
18455;SDS011;9357;49.900;8.208;2023-07-31T03:54:24;5.87;;;2.80;;
18455;SDS011;9357;49.900;8.208;2023-07-31T03:55:56;5.47;;;2.80;;
18455;SDS011;9357;49.900;8.208;2023-07-31T03:57:29;4.83;;;2.77;;
18455;SDS011;9357;49.900;8.208;2023-07-31T03:59:01;5.83;;;2.83;;
18455;SDS011;9357;49.900;8.208;2023-07-31T04:00:35;5.03;;;2.50;;
18455;SDS011;9357;49.900;8.208;2023-07-31T04:02:06;5.57;;;3.00;;
18455;SDS011;9357;49.900;8.208;2023-07-31T04:03:39;4.57;;;2.80;;
18455;SDS011;9357;49.900;8.208;2023-07-31T04:05:11;4.97;;;2.83;;
18455;SDS011;9357;49.900;8.208;2023-07-31T04:06:44;5.50;;;2.97;;
18455;SDS011;9357;49.900;8.208;2023-07-31T04:08:15;5.50;;;2.63;;
18455;SDS011;9357;49.900;8.208;2023-07-31T04:09:48;4.23;;;2.57;;
18455;SDS011;9357;49.900;8.208;2023-07-31T04:11:21;5.50;;;2.60;;
18455;SDS011;9357;49.900;8.208;2023-07-31T04:12:53;4.47;;;2.93;;
18455;SDS011;9357;49.900;8.208;2023-07-31T04:14:26;8.00;;;2.77;;
18455;SDS011;9357;49.900;8.208;2023-07-31T04:16:00;4.00;;;2.50;;
18455;SDS011;9357;49.900;8.208;2023-07-31T04:17:31;5.90;;;2.93;;
18455;SDS011;9357;49.900;8.208;2023-07-31T04:19:04;7.60;;;2.83;;
18455;SDS011;9357;49.900;8.208;2023-07-31T04:20:36;6.23;;;2.97;;
18455;SDS011;9357;49.900;8.208;2023-07-31T04:22:10;6.27;;;2.63;;
18455;SDS011;9357;49.900;8.208;2023-07-31T04:23:42;6.70;;;2.97;;
18455;SDS011;9357;49.900;8.208;2023-07-31T04:25:14;3.53;;;2.63;;
18455;SDS011;9357;49.900;8.208;2023-07-31T04:26:46;5.27;;;2.60;;
18455;SDS011;9357;49.900;8.208;2023-07-31T04:28:19;7.43;;;2.77;;
18455;SDS011;9357;49.900;8.208;2023-07-31T04:29:52;6.40;;;2.97;;
18455;SDS011;9357;49.900;8.208;2023-07-31T04:31:25;6.37;;;3.00;;
18455;SDS011;9357;49.900;8.208;2023-07-31T04:32:58;6.10;;;2.50;;
18455;SDS011;9357;49.900;8.208;2023-07-31T04:34:29;5.60;;;2.70;;
18455;SDS011;9357;49.900;8.208;2023-07-31T04:36:02;6.30;;;3.20;;
18455;SDS011;9357;49.900;8.208;2023-07-31T04:37:35;6.77;;;2.73;;
18455;SDS011;9357;49.900;8.208;2023-07-31T04:39:07;5.67;;;3.10;;
18455;SDS011;9357;49.900;8.208;2023-07-31T04:40:40;7.00;;;2.87;;
18455;SDS011;9357;49.900;8.208;2023-07-31T04:42:12;6.77;;;3.10;;
18455;SDS011;9357;49.900;8.208;2023-07-31T04:43:44;5.83;;;3.07;;
18455;SDS011;9357;49.900;8.208;2023-07-31T04:45:17;4.80;;;2.60;;
18455;SDS011;9357;49.900;8.208;2023-07-31T04:46:51;4.97;;;3.03;;
18455;SDS011;9357;49.900;8.208;2023-07-31T04:48:23;7.03;;;2.90;;
18455;SDS011;9357;49.900;8.208;2023-07-31T04:49:55;5.80;;;3.03;;
18455;SDS011;9357;49.900;8.208;2023-07-31T04:51:28;6.77;;;2.90;;
18455;SDS011;9357;49.900;8.208;2023-07-31T04:53:01;7.27;;;3.13;;
18455;SDS011;9357;49.900;8.208;2023-07-31T04:54:33;5.60;;;2.67;;
18455;SDS011;9357;49.900;8.208;2023-07-31T04:56:05;7.43;;;3.10;;
18455;SDS011;9357;49.900;8.208;2023-07-31T04:57:37;4.50;;;2.90;;
18455;SDS011;9357;49.900;8.208;2023-07-31T04:59:10;6.37;;;2.90;;
18455;SDS011;9357;49.900;8.208;2023-07-31T05:00:41;6.30;;;2.70;;
18455;SDS011;9357;49.900;8.208;2023-07-31T05:02:16;6.80;;;2.83;;
18455;SDS011;9357;49.900;8.208;2023-07-31T05:03:47;10.03;;;2.97;;
18455;SDS011;9357;49.900;8.208;2023-07-31T05:05:20;7.47;;;2.93;;
18455;SDS011;9357;49.900;8.208;2023-07-31T05:06:52;6.33;;;3.07;;
18455;SDS011;9357;49.900;8.208;2023-07-31T05:08:25;5.40;;;2.83;;
18455;SDS011;9357;49.900;8.208;2023-07-31T05:09:57;4.97;;;2.90;;
18455;SDS011;9357;49.900;8.208;2023-07-31T05:11:30;7.60;;;3.27;;
18455;SDS011;9357;49.900;8.208;2023-07-31T05:13:02;5.37;;;3.00;;
18455;SDS011;9357;49.900;8.208;2023-07-31T05:14:34;5.53;;;2.90;;
18455;SDS011;9357;49.900;8.208;2023-07-31T05:16:06;5.63;;;3.10;;
18455;SDS011;9357;49.900;8.208;2023-07-31T05:17:40;5.00;;;2.83;;
18455;SDS011;9357;49.900;8.208;2023-07-31T05:19:12;6.37;;;2.50;;
18455;SDS011;9357;49.900;8.208;2023-07-31T05:20:45;6.87;;;2.90;;
18455;SDS011;9357;49.900;8.208;2023-07-31T05:22:18;8.57;;;2.97;;
18455;SDS011;9357;49.900;8.208;2023-07-31T05:23:50;6.37;;;3.07;;
18455;SDS011;9357;49.900;8.208;2023-07-31T05:25:22;7.97;;;2.83;;
18455;SDS011;9357;49.900;8.208;2023-07-31T05:26:54;5.30;;;2.73;;
18455;SDS011;9357;49.900;8.208;2023-07-31T05:28:27;4.90;;;2.60;;
18455;SDS011;9357;49.900;8.208;2023-07-31T05:29:59;5.53;;;2.63;;
18455;SDS011;9357;49.900;8.208;2023-07-31T05:31:32;6.00;;;3.00;;
18455;SDS011;9357;49.900;8.208;2023-07-31T05:33:05;4.10;;;2.40;;
18455;SDS011;9357;49.900;8.208;2023-07-31T05:34:37;4.30;;;2.80;;
18455;SDS011;9357;49.900;8.208;2023-07-31T05:36:09;6.30;;;2.87;;
18455;SDS011;9357;49.900;8.208;2023-07-31T05:37:42;6.57;;;3.07;;
18455;SDS011;9357;49.900;8.208;2023-07-31T05:39:14;9.80;;;3.30;;
18455;SDS011;9357;49.900;8.208;2023-07-31T05:40:47;8.77;;;3.10;;
18455;SDS011;9357;49.900;8.208;2023-07-31T05:42:18;6.43;;;2.70;;
18455;SDS011;9357;49.900;8.208;2023-07-31T05:43:51;4.30;;;3.00;;
18455;SDS011;9357;49.900;8.208;2023-07-31T05:45:24;4.40;;;2.60;;
18455;SDS011;9357;49.900;8.208;2023-07-31T05:46:57;5.10;;;3.10;;
18455;SDS011;9357;49.900;8.208;2023-07-31T05:48:30;7.03;;;3.03;;
18455;SDS011;9357;49.900;8.208;2023-07-31T05:50:05;6.03;;;3.10;;
18455;SDS011;9357;49.900;8.208;2023-07-31T05:51:38;5.67;;;2.83;;
18455;SDS011;9357;49.900;8.208;2023-07-31T05:53:10;7.53;;;2.90;;
18455;SDS011;9357;49.900;8.208;2023-07-31T05:54:42;4.27;;;2.73;;
18455;SDS011;9357;49.900;8.208;2023-07-31T05:56:17;6.77;;;3.03;;
18455;SDS011;9357;49.900;8.208;2023-07-31T05:57:49;5.27;;;2.77;;
18455;SDS011;9357;49.900;8.208;2023-07-31T05:59:21;5.50;;;2.87;;
18455;SDS011;9357;49.900;8.208;2023-07-31T06:00:54;9.13;;;3.13;;
18455;SDS011;9357;49.900;8.208;2023-07-31T06:02:26;5.33;;;2.70;;
18455;SDS011;9357;49.900;8.208;2023-07-31T06:04:00;6.77;;;2.80;;
18455;SDS011;9357;49.900;8.208;2023-07-31T06:05:33;6.03;;;2.60;;
18455;SDS011;9357;49.900;8.208;2023-07-31T06:07:05;5.70;;;2.90;;
18455;SDS011;9357;49.900;8.208;2023-07-31T06:08:37;5.67;;;2.90;;
18455;SDS011;9357;49.900;8.208;2023-07-31T06:10:11;4.63;;;2.63;;
18455;SDS011;9357;49.900;8.208;2023-07-31T06:11:44;5.90;;;3.00;;
18455;SDS011;9357;49.900;8.208;2023-07-31T06:13:16;5.30;;;2.70;;
18455;SDS011;9357;49.900;8.208;2023-07-31T06:14:49;4.10;;;2.57;;
18455;SDS011;9357;49.900;8.208;2023-07-31T06:16:21;6.40;;;3.00;;
18455;SDS011;9357;49.900;8.208;2023-07-31T06:17:53;4.97;;;2.73;;
18455;SDS011;9357;49.900;8.208;2023-07-31T06:19:27;4.53;;;2.53;;
18455;SDS011;9357;49.900;8.208;2023-07-31T06:21:00;4.97;;;3.00;;
18455;SDS011;9357;49.900;8.208;2023-07-31T06:22:32;5.80;;;2.40;;
18455;SDS011;9357;49.900;8.208;2023-07-31T06:24:05;6.60;;;3.43;;
18455;SDS011;9357;49.900;8.208;2023-07-31T06:25:37;7.43;;;2.83;;
18455;SDS011;9357;49.900;8.208;2023-07-31T06:27:09;4.13;;;2.60;;
18455;SDS011;9357;49.900;8.208;2023-07-31T06:28:42;4.67;;;2.50;;
18455;SDS011;9357;49.900;8.208;2023-07-31T06:30:14;5.23;;;2.53;;
18455;SDS011;9357;49.900;8.208;2023-07-31T06:31:47;6.30;;;2.83;;
18455;SDS011;9357;49.900;8.208;2023-07-31T06:33:19;4.97;;;2.80;;
18455;SDS011;9357;49.900;8.208;2023-07-31T06:34:53;6.00;;;2.97;;
18455;SDS011;9357;49.900;8.208;2023-07-31T06:36:25;6.53;;;2.87;;
18455;SDS011;9357;49.900;8.208;2023-07-31T06:37:58;4.20;;;2.83;;
18455;SDS011;9357;49.900;8.208;2023-07-31T06:39:29;3.77;;;2.40;;
18455;SDS011;9357;49.900;8.208;2023-07-31T06:41:02;9.63;;;2.80;;
18455;SDS011;9357;49.900;8.208;2023-07-31T06:42:35;5.00;;;2.37;;
18455;SDS011;9357;49.900;8.208;2023-07-31T06:44:07;3.93;;;2.50;;
18455;SDS011;9357;49.900;8.208;2023-07-31T06:45:40;5.93;;;2.77;;
18455;SDS011;9357;49.900;8.208;2023-07-31T06:47:12;5.83;;;2.73;;
18455;SDS011;9357;49.900;8.208;2023-07-31T06:48:45;4.60;;;2.60;;
18455;SDS011;9357;49.900;8.208;2023-07-31T06:50:18;6.80;;;3.10;;
18455;SDS011;9357;49.900;8.208;2023-07-31T06:51:51;7.77;;;3.07;;
18455;SDS011;9357;49.900;8.208;2023-07-31T06:53:23;6.13;;;3.03;;
18455;SDS011;9357;49.900;8.208;2023-07-31T06:55:02;4.17;;;2.73;;
18455;SDS011;9357;49.900;8.208;2023-07-31T06:56:36;4.17;;;2.73;;
18455;SDS011;9357;49.900;8.208;2023-07-31T06:58:11;7.37;;;2.80;;
18455;SDS011;9357;49.900;8.208;2023-07-31T06:59:44;5.83;;;2.70;;
18455;SDS011;9357;49.900;8.208;2023-07-31T07:01:15;5.73;;;2.93;;
18455;SDS011;9357;49.900;8.208;2023-07-31T07:02:49;4.13;;;2.23;;
18455;SDS011;9357;49.900;8.208;2023-07-31T07:04:21;4.90;;;2.90;;
18455;SDS011;9357;49.900;8.208;2023-07-31T07:05:55;7.47;;;3.13;;
18455;SDS011;9357;49.900;8.208;2023-07-31T07:07:27;5.13;;;2.57;;
18455;SDS011;9357;49.900;8.208;2023-07-31T07:08:59;7.97;;;2.80;;
18455;SDS011;9357;49.900;8.208;2023-07-31T07:10:31;5.27;;;3.00;;
18455;SDS011;9357;49.900;8.208;2023-07-31T07:12:04;5.83;;;2.40;;
18455;SDS011;9357;49.900;8.208;2023-07-31T07:13:37;4.40;;;2.80;;
18455;SDS011;9357;49.900;8.208;2023-07-31T07:15:10;6.13;;;2.90;;
18455;SDS011;9357;49.900;8.208;2023-07-31T07:16:41;4.73;;;2.70;;
18455;SDS011;9357;49.900;8.208;2023-07-31T07:18:14;8.30;;;2.77;;
18455;SDS011;9357;49.900;8.208;2023-07-31T07:19:47;6.77;;;3.00;;
18455;SDS011;9357;49.900;8.208;2023-07-31T07:21:21;5.60;;;2.80;;
18455;SDS011;9357;49.900;8.208;2023-07-31T07:22:54;6.50;;;2.50;;
18455;SDS011;9357;49.900;8.208;2023-07-31T07:24:26;6.23;;;2.50;;
18455;SDS011;9357;49.900;8.208;2023-07-31T07:25:58;5.43;;;2.53;;
18455;SDS011;9357;49.900;8.208;2023-07-31T07:27:31;5.67;;;2.53;;
18455;SDS011;9357;49.900;8.208;2023-07-31T07:29:03;3.83;;;2.50;;
18455;SDS011;9357;49.900;8.208;2023-07-31T07:30:38;5.93;;;2.53;;
18455;SDS011;9357;49.900;8.208;2023-07-31T07:32:10;4.53;;;2.50;;
18455;SDS011;9357;49.900;8.208;2023-07-31T07:33:43;5.90;;;2.60;;
18455;SDS011;9357;49.900;8.208;2023-07-31T07:35:15;4.73;;;2.67;;
18455;SDS011;9357;49.900;8.208;2023-07-31T07:36:49;5.50;;;2.60;;
18455;SDS011;9357;49.900;8.208;2023-07-31T07:38:21;6.57;;;2.87;;
18455;SDS011;9357;49.900;8.208;2023-07-31T07:39:53;6.50;;;2.60;;
18455;SDS011;9357;49.900;8.208;2023-07-31T07:41:26;5.43;;;2.73;;
18455;SDS011;9357;49.900;8.208;2023-07-31T07:42:58;5.97;;;2.80;;
18455;SDS011;9357;49.900;8.208;2023-07-31T07:44:31;5.27;;;2.90;;
18455;SDS011;9357;49.900;8.208;2023-07-31T07:46:03;4.50;;;2.47;;
18455;SDS011;9357;49.900;8.208;2023-07-31T07:47:36;3.73;;;2.47;;
18455;SDS011;9357;49.900;8.208;2023-07-31T07:49:08;4.83;;;2.50;;
18455;SDS011;9357;49.900;8.208;2023-07-31T07:50:41;5.83;;;2.70;;
18455;SDS011;9357;49.900;8.208;2023-07-31T07:52:15;4.20;;;2.47;;
18455;SDS011;9357;49.900;8.208;2023-07-31T07:53:47;3.90;;;2.50;;
18455;SDS011;9357;49.900;8.208;2023-07-31T07:55:20;4.83;;;2.50;;
18455;SDS011;9357;49.900;8.208;2023-07-31T07:56:53;6.60;;;2.70;;
18455;SDS011;9357;49.900;8.208;2023-07-31T07:58:24;5.27;;;2.80;;
18455;SDS011;9357;49.900;8.208;2023-07-31T07:59:57;6.40;;;2.70;;
18455;SDS011;9357;49.900;8.208;2023-07-31T08:01:29;5.17;;;2.73;;
18455;SDS011;9357;49.900;8.208;2023-07-31T08:03:02;3.63;;;2.63;;
18455;SDS011;9357;49.900;8.208;2023-07-31T08:04:35;5.43;;;2.90;;
18455;SDS011;9357;49.900;8.208;2023-07-31T08:06:06;5.03;;;2.70;;
18455;SDS011;9357;49.900;8.208;2023-07-31T08:07:41;4.07;;;2.90;;
18455;SDS011;9357;49.900;8.208;2023-07-31T08:09:14;6.47;;;2.67;;
18455;SDS011;9357;49.900;8.208;2023-07-31T08:10:46;3.90;;;2.50;;
18455;SDS011;9357;49.900;8.208;2023-07-31T08:12:18;3.73;;;2.50;;
18455;SDS011;9357;49.900;8.208;2023-07-31T08:13:51;4.40;;;2.50;;
18455;SDS011;9357;49.900;8.208;2023-07-31T08:15:24;5.40;;;3.00;;
18455;SDS011;9357;49.900;8.208;2023-07-31T08:16:56;4.07;;;2.50;;
18455;SDS011;9357;49.900;8.208;2023-07-31T08:18:28;6.47;;;2.83;;
18455;SDS011;9357;49.900;8.208;2023-07-31T08:20:02;4.50;;;2.53;;
18455;SDS011;9357;49.900;8.208;2023-07-31T08:21:35;7.00;;;3.00;;
18455;SDS011;9357;49.900;8.208;2023-07-31T08:23:10;4.10;;;2.73;;
18455;SDS011;9357;49.900;8.208;2023-07-31T08:24:41;3.53;;;2.50;;
18455;SDS011;9357;49.900;8.208;2023-07-31T08:26:14;3.97;;;2.87;;
18455;SDS011;9357;49.900;8.208;2023-07-31T08:27:46;4.70;;;2.87;;
18455;SDS011;9357;49.900;8.208;2023-07-31T08:29:19;5.07;;;2.57;;
18455;SDS011;9357;49.900;8.208;2023-07-31T08:30:51;5.43;;;2.70;;
18455;SDS011;9357;49.900;8.208;2023-07-31T08:32:24;6.00;;;2.50;;
18455;SDS011;9357;49.900;8.208;2023-07-31T08:33:56;5.83;;;2.80;;
18455;SDS011;9357;49.900;8.208;2023-07-31T08:35:28;5.70;;;2.50;;
18455;SDS011;9357;49.900;8.208;2023-07-31T08:37:00;4.77;;;2.60;;
18455;SDS011;9357;49.900;8.208;2023-07-31T08:38:34;5.80;;;2.70;;
18455;SDS011;9357;49.900;8.208;2023-07-31T08:40:07;5.23;;;2.67;;
18455;SDS011;9357;49.900;8.208;2023-07-31T08:41:40;4.27;;;2.33;;
18455;SDS011;9357;49.900;8.208;2023-07-31T08:43:13;4.03;;;2.47;;
18455;SDS011;9357;49.900;8.208;2023-07-31T08:44:45;5.50;;;2.47;;
18455;SDS011;9357;49.900;8.208;2023-07-31T08:46:19;7.00;;;2.67;;
18455;SDS011;9357;49.900;8.208;2023-07-31T08:47:52;5.43;;;2.80;;
18455;SDS011;9357;49.900;8.208;2023-07-31T08:49:25;7.63;;;2.93;;
18455;SDS011;9357;49.900;8.208;2023-07-31T08:50:58;5.13;;;2.70;;
18455;SDS011;9357;49.900;8.208;2023-07-31T08:52:30;4.67;;;2.80;;
18455;SDS011;9357;49.900;8.208;2023-07-31T08:54:04;5.57;;;2.50;;
18455;SDS011;9357;49.900;8.208;2023-07-31T08:55:37;5.70;;;2.80;;
18455;SDS011;9357;49.900;8.208;2023-07-31T08:57:09;5.63;;;2.90;;
18455;SDS011;9357;49.900;8.208;2023-07-31T08:58:43;9.10;;;3.33;;
18455;SDS011;9357;49.900;8.208;2023-07-31T09:00:18;5.67;;;2.80;;
18455;SDS011;9357;49.900;8.208;2023-07-31T09:01:53;7.87;;;3.50;;
18455;SDS011;9357;49.900;8.208;2023-07-31T09:03:29;4.77;;;2.43;;
18455;SDS011;9357;49.900;8.208;2023-07-31T09:05:05;5.27;;;2.93;;
18455;SDS011;9357;49.900;8.208;2023-07-31T09:06:39;8.17;;;3.10;;
18455;SDS011;9357;49.900;8.208;2023-07-31T09:08:12;4.73;;;2.67;;
18455;SDS011;9357;49.900;8.208;2023-07-31T09:09:49;4.17;;;2.70;;
18455;SDS011;9357;49.900;8.208;2023-07-31T09:11:21;6.97;;;3.00;;
18455;SDS011;9357;49.900;8.208;2023-07-31T09:12:56;3.70;;;2.67;;
18455;SDS011;9357;49.900;8.208;2023-07-31T09:14:29;7.00;;;3.57;;
18455;SDS011;9357;49.900;8.208;2023-07-31T09:16:02;9.67;;;3.40;;
18455;SDS011;9357;49.900;8.208;2023-07-31T09:17:35;6.93;;;2.57;;
18455;SDS011;9357;49.900;8.208;2023-07-31T09:19:08;6.30;;;2.80;;
18455;SDS011;9357;49.900;8.208;2023-07-31T09:20:40;5.70;;;3.07;;
18455;SDS011;9357;49.900;8.208;2023-07-31T09:22:13;3.93;;;2.60;;
18455;SDS011;9357;49.900;8.208;2023-07-31T09:23:46;4.60;;;2.83;;
18455;SDS011;9357;49.900;8.208;2023-07-31T09:25:21;7.40;;;3.30;;
18455;SDS011;9357;49.900;8.208;2023-07-31T09:26:54;4.47;;;2.87;;
18455;SDS011;9357;49.900;8.208;2023-07-31T09:28:30;5.60;;;3.23;;